Time;durP1;ratioP1;P1;durP2;ratioP2;P2;SDS_P1;SDS_P2;PMS_P1;PMS_P2;Temp;Humidity;BMP_temperature;BMP_pressure;BME280_temperature;BME280_humidity;BME280_pressure;Samples;Min_cycle;Max_cycle;Signal;HPM_P1;HPM_P2
2021/09/29 00:00:11;;;;;;;0.70;0.50;;;12.20;93.90;;;;;;5024955;28;20064;-65
2021/09/29 00:02:37;;;;;;;3.50;0.68;;;12.20;93.80;;;;;;5024708;28;20054;-64
2021/09/29 00:05:05;;;;;;;2.15;0.65;;;12.20;93.90;;;;;;5023704;28;20271;-65
2021/09/29 00:07:32;;;;;;;2.85;0.65;;;12.10;93.80;;;;;;5024060;28;20103;-65
2021/09/29 00:09:59;;;;;;;1.58;0.50;;;12.10;93.70;;;;;;5023201;28;20666;-63
2021/09/29 00:12:26;;;;;;;3.45;0.80;;;12.10;93.60;;;;;;5024544;28;20088;-63
2021/09/29 00:14:52;;;;;;;0.93;0.40;;;12.10;93.70;;;;;;5026227;28;20420;-64
2021/09/29 00:17:19;;;;;;;2.35;0.75;;;12.00;94.00;;;;;;5022409;28;20136;-64
2021/09/29 00:19:46;;;;;;;5.55;0.75;;;12.00;93.70;;;;;;5026624;28;20134;-65
2021/09/29 00:22:12;;;;;;;1.30;0.98;;;12.00;93.60;;;;;;5026000;28;20076;-64
2021/09/29 00:24:39;;;;;;;0.70;0.38;;;11.90;93.80;;;;;;5024773;28;20037;-65
2021/09/29 00:27:06;;;;;;;3.17;0.57;;;11.90;93.50;;;;;;5023283;28;20473;-64
2021/09/29 00:29:33;;;;;;;4.15;1.48;;;11.90;93.50;;;;;;5025484;28;20145;-64
2021/09/29 00:32:05;;;;;;;1.08;0.45;;;11.90;93.50;;;;;;5025637;28;20473;-64
2021/09/29 00:34:39;;;;;;;3.20;1.38;;;11.80;93.40;;;;;;5025963;28;20468;-64
2021/09/29 00:37:06;;;;;;;1.63;0.90;;;11.80;93.50;;;;;;5024629;28;20085;-64
2021/09/29 00:39:33;;;;;;;1.90;0.50;;;11.80;93.40;;;;;;5022097;28;20072;-64
2021/09/29 00:42:00;;;;;;;1.30;0.32;;;11.70;93.40;;;;;;5026029;28;20073;-64
2021/09/29 00:44:27;;;;;;;0.82;0.70;;;11.70;93.40;;;;;;5025972;28;20571;-63
2021/09/29 00:46:53;;;;;;;1.25;0.40;;;11.70;93.50;;;;;;5025975;28;20049;-63
2021/09/29 00:49:20;;;;;;;1.55;0.43;;;11.60;93.40;;;;;;5026293;28;20053;-63
2021/09/29 00:51:47;;;;;;;0.93;0.40;;;11.60;93.40;;;;;;5024755;28;20046;-64
2021/09/29 00:54:14;;;;;;;3.40;0.40;;;11.60;93.40;;;;;;5024973;28;20140;-64
2021/09/29 00:56:40;;;;;;;0.25;0.25;;;11.60;93.40;;;;;;5026478;28;20081;-64
2021/09/29 00:59:07;;;;;;;0.93;0.30;;;11.60;93.40;;;;;;5025591;28;20202;-64
2021/09/29 01:01:37;;;;;;;0.57;0.45;;;11.60;93.30;;;;;;4792001;28;10000992;-64
2021/09/29 01:04:04;;;;;;;4.60;0.60;;;11.60;93.40;;;;;;5022787;28;20293;-63
2021/09/29 01:06:41;;;;;;;1.70;0.47;;;11.60;93.40;;;;;;5007686;28;20096;-64
2021/09/29 01:09:28;;;;;;;1.02;0.30;;;11.60;93.20;;;;;;4996107;28;20544;-63
2021/09/29 01:12:10;;;;;;;2.83;0.30;;;11.50;93.30;;;;;;5023252;28;20627;-63
2021/09/29 01:15:14;;;;;;;0.52;0.38;;;11.60;93.30;;;;;;5029297;28;20132;-64
2021/09/29 01:17:44;;;;;;;2.92;0.40;;;11.60;93.20;;;;;;5019001;28;20421;-65
2021/09/29 01:20:12;;;;;;;2.42;0.70;;;11.60;93.10;;;;;;5027626;28;20141;-63
2021/09/29 01:22:42;;;;;;;3.75;0.52;;;11.70;93.40;;;;;;5028468;28;20113;-63
2021/09/29 01:25:41;;;;;;;1.25;0.40;;;11.70;93.10;;;;;;5029305;28;20137;-64
2021/09/29 01:28:08;;;;;;;0.75;0.30;;;11.70;93.20;;;;;;5025160;28;20088;-64
2021/09/29 01:30:37;;;;;;;1.33;0.32;;;11.60;93.00;;;;;;5028733;28;20138;-64
2021/09/29 01:33:04;;;;;;;0.40;0.40;;;11.70;93.00;;;;;;5028911;28;20215;-63
2021/09/29 01:35:31;;;;;;;2.28;0.30;;;11.60;93.10;;;;;;5029618;28;20060;-64
2021/09/29 01:37:59;;;;;;;0.75;0.28;;;11.60;93.10;;;;;;5028671;28;20060;-64
2021/09/29 01:40:25;;;;;;;0.63;0.40;;;11.60;93.00;;;;;;5029274;28;20442;-64
2021/09/29 01:42:52;;;;;;;0.82;0.30;;;11.60;92.90;;;;;;5029582;28;20061;-65
2021/09/29 01:45:19;;;;;;;0.30;0.30;;;11.50;93.00;;;;;;5029243;28;20045;-64
2021/09/29 01:47:47;;;;;;;0.75;0.40;;;11.50;93.10;;;;;;5029775;28;20595;-64
2021/09/29 01:50:13;;;;;;;1.38;0.50;;;11.50;93.10;;;;;;5029501;28;20085;-64
2021/09/29 01:52:43;;;;;;;4.53;0.55;;;11.50;93.10;;;;;;5031380;28;20069;-63
2021/09/29 01:55:12;;;;;;;0.95;0.47;;;11.50;93.10;;;;;;5031740;28;20179;-63
2021/09/29 01:57:39;;;;;;;0.80;0.50;;;11.50;93.20;;;;;;5031192;28;20049;-63
2021/09/29 02:00:06;;;;;;;2.28;0.50;;;11.40;93.20;;;;;;5029769;28;20099;-65
2021/09/29 02:02:33;;;;;;;1.88;1.00;;;11.50;93.20;;;;;;5028772;28;20503;-64
2021/09/29 02:05:00;;;;;;;1.13;0.70;;;11.50;93.20;;;;;;5027616;28;20099;-64
2021/09/29 02:07:27;;;;;;;4.70;1.05;;;11.50;93.40;;;;;;5028706;28;20053;-64
2021/09/29 02:09:54;;;;;;;1.42;0.70;;;11.50;93.70;;;;;;5028012;28;20041;-64
2021/09/29 02:12:21;;;;;;;5.45;1.17;;;11.50;93.40;;;;;;5028621;28;20550;-64
2021/09/29 02:14:48;;;;;;;2.80;0.88;;;11.50;93.50;;;;;;5027717;28;20702;-65
2021/09/29 02:17:17;;;;;;;0.95;0.88;;;11.50;93.60;;;;;;5026117;28;20550;-65
2021/09/29 02:19:45;;;;;;;1.58;1.15;;;11.50;93.70;;;;;;5028992;28;20073;-64
2021/09/29 02:22:14;;;;;;;1.42;1.02;;;11.50;93.70;;;;;;5029022;28;20041;-64
2021/09/29 02:24:41;;;;;;;1.83;1.30;;;11.50;93.70;;;;;;5026926;28;20088;-64
2021/09/29 02:27:08;;;;;;;4.32;1.38;;;11.40;93.80;;;;;;5028365;28;20680;-64
2021/09/29 02:29:34;;;;;;;5.47;1.65;;;11.40;93.80;;;;;;5028892;28;20128;-64
2021/09/29 02:32:01;;;;;;;2.17;1.50;;;11.40;94.00;;;;;;5028166;28;20525;-65
2021/09/29 02:34:28;;;;;;;4.95;1.30;;;11.40;93.90;;;;;;5029190;28;20419;-64
2021/09/29 02:36:55;;;;;;;5.00;1.45;;;11.40;93.90;;;;;;5028459;28;20049;-63
2021/09/29 02:39:22;;;;;;;5.18;2.05;;;11.30;93.90;;;;;;5009263;28;20081;-63
2021/09/29 02:41:49;;;;;;;2.17;1.20;;;11.30;93.70;;;;;;5025042;28;20076;-63
2021/09/29 02:44:16;;;;;;;2.22;1.27;;;11.30;93.60;;;;;;5028609;28;20077;-63
2021/09/29 02:46:42;;;;;;;1.73;0.95;;;11.30;93.70;;;;;;5026973;28;20330;-64
2021/09/29 02:49:09;;;;;;;2.40;1.13;;;11.30;93.50;;;;;;5028909;28;20057;-65
2021/09/29 02:51:36;;;;;;;2.45;1.08;;;11.30;93.50;;;;;;5028503;28;20492;-64
2021/09/29 02:54:03;;;;;;;1.48;0.82;;;11.30;93.50;;;;;;5028131;28;20058;-64
2021/09/29 02:56:30;;;;;;;3.42;0.90;;;11.30;93.40;;;;;;5028280;28;20075;-63
2021/09/29 02:58:57;;;;;;;2.63;0.90;;;11.20;93.50;;;;;;5028267;28;20072;-63
2021/09/29 03:01:24;;;;;;;1.23;1.02;;;11.20;93.40;;;;;;5028323;28;20092;-64
2021/09/29 03:03:51;;;;;;;7.00;1.00;;;11.20;93.40;;;;;;5028183;28;20037;-64
2021/09/29 03:06:17;;;;;;;1.58;0.90;;;11.20;93.30;;;;;;5027834;28;20778;-63
2021/09/29 03:08:44;;;;;;;1.65;0.73;;;11.20;93.50;;;;;;5026470;28;20477;-64
2021/09/29 03:11:11;;;;;;;3.58;1.00;;;11.20;93.30;;;;;;5028147;28;20104;-63
2021/09/29 03:13:38;;;;;;;1.05;0.68;;;11.10;93.40;;;;;;5026446;28;20045;-63
2021/09/29 03:16:05;;;;;;;1.80;0.75;;;11.10;93.30;;;;;;5028008;28;20554;-65
2021/09/29 03:18:31;;;;;;;2.05;1.15;;;11.10;93.20;;;;;;5027717;28;20041;-64
2021/09/29 03:20:58;;;;;;;1.20;0.93;;;11.10;93.20;;;;;;5028121;28;20132;-64
2021/09/29 03:23:25;;;;;;;1.83;0.88;;;11.10;93.40;;;;;;5026276;28;20085;-64
2021/09/29 03:25:52;;;;;;;4.32;1.08;;;11.00;93.30;;;;;;5027832;28;20179;-65
2021/09/29 03:28:18;;;;;;;2.88;0.90;;;11.00;93.20;;;;;;5031021;28;20139;-64
2021/09/29 03:30:45;;;;;;;1.30;0.80;;;11.00;93.10;;;;;;5026693;28;20073;-63
2021/09/29 03:33:12;;;;;;;5.05;1.27;;;10.90;93.20;;;;;;5026710;28;20453;-64
2021/09/29 03:35:39;;;;;;;7.93;1.10;;;10.90;93.50;;;;;;5024529;28;20103;-64
2021/09/29 03:38:06;;;;;;;2.00;0.85;;;10.90;93.30;;;;;;5027703;28;20444;-64
2021/09/29 03:40:32;;;;;;;1.77;0.80;;;10.80;93.30;;;;;;5026847;28;20164;-64
2021/09/29 03:42:59;;;;;;;1.55;0.75;;;10.80;93.20;;;;;;5026833;28;20554;-63
2021/09/29 03:45:26;;;;;;;2.03;0.85;;;10.80;93.40;;;;;;5033042;28;20095;-64
2021/09/29 03:47:53;;;;;;;2.13;1.02;;;10.80;93.20;;;;;;5029040;28;20103;-63
2021/09/29 03:50:20;;;;;;;1.65;1.00;;;10.70;93.10;;;;;;5028876;28;20084;-64
2021/09/29 03:52:47;;;;;;;3.55;1.55;;;10.70;93.20;;;;;;5027358;28;20049;-64
2021/09/29 03:55:15;;;;;;;7.55;1.10;;;10.70;93.20;;;;;;5026394;28;20115;-63
2021/09/29 03:57:42;;;;;;;4.30;1.02;;;10.70;93.20;;;;;;5009622;28;20128;-63
2021/09/29 04:00:10;;;;;;;1.92;0.95;;;10.60;93.10;;;;;;5025958;28;20091;-64
2021/09/29 04:02:37;;;;;;;4.65;1.05;;;10.60;93.10;;;;;;5022601;28;20492;-63
2021/09/29 04:05:05;;;;;;;1.67;0.95;;;10.60;93.20;;;;;;5024914;28;20140;-64
2021/09/29 04:07:32;;;;;;;5.63;1.00;;;10.50;93.20;;;;;;5028012;28;20091;-64
2021/09/29 04:09:59;;;;;;;3.60;0.95;;;10.50;93.00;;;;;;5026825;28;20131;-64
2021/09/29 04:12:26;;;;;;;4.38;1.00;;;10.40;93.00;;;;;;5027046;28;20128;-64
2021/09/29 04:14:53;;;;;;;3.03;0.90;;;10.50;93.00;;;;;;5027133;28;20132;-64
2021/09/29 04:17:19;;;;;;;2.65;0.80;;;10.50;93.00;;;;;;5028645;28;20069;-63
2021/09/29 04:19:46;;;;;;;5.88;0.82;;;10.40;93.00;;;;;;5027602;28;20429;-64
2021/09/29 04:22:13;;;;;;;3.25;0.80;;;10.40;92.90;;;;;;5025851;28;20479;-64
2021/09/29 04:24:40;;;;;;;1.55;0.98;;;10.40;92.80;;;;;;5025446;28;20045;-64
2021/09/29 04:27:08;;;;;;;2.95;1.05;;;10.40;93.00;;;;;;5020684;28;20081;-63
2021/09/29 04:29:35;;;;;;;11.60;0.85;;;10.30;92.90;;;;;;5030663;28;20569;-63
2021/09/29 04:32:03;;;;;;;6.07;1.05;;;10.30;92.90;;;;;;5026191;28;20046;-64
2021/09/29 04:34:30;;;;;;;1.13;0.70;;;10.20;92.90;;;;;;5025308;28;20363;-63
2021/09/29 04:36:56;;;;;;;9.20;1.35;;;10.30;92.90;;;;;;5025188;28;20045;-63
2021/09/29 04:39:23;;;;;;;6.18;0.70;;;10.20;92.90;;;;;;5027319;28;20523;-63
2021/09/29 04:41:50;;;;;;;6.43;1.25;;;10.20;92.90;;;;;;5029603;28;20095;-63
2021/09/29 04:44:17;;;;;;;1.45;0.73;;;10.20;93.00;;;;;;5030288;28;20092;-63
2021/09/29 04:46:43;;;;;;;4.32;1.15;;;10.20;92.80;;;;;;5030632;28;20080;-63
2021/09/29 04:49:10;;;;;;;3.72;1.15;;;10.20;92.70;;;;;;5037668;28;20103;-63
2021/09/29 04:51:38;;;;;;;2.05;0.93;;;10.10;92.70;;;;;;5029820;28;20046;-64
2021/09/29 04:54:05;;;;;;;3.00;0.80;;;10.10;92.70;;;;;;5034700;28;20053;-63
2021/09/29 04:56:32;;;;;;;6.97;1.05;;;10.00;92.70;;;;;;5029819;28;20042;-63
2021/09/29 04:58:59;;;;;;;1.80;0.93;;;10.00;92.70;;;;;;5035435;28;20094;-64
2021/09/29 05:01:26;;;;;;;1.15;0.90;;;10.00;92.70;;;;;;5032111;28;20081;-64
2021/09/29 05:03:54;;;;;;;12.43;2.05;;;10.00;92.60;;;;;;5029863;28;20147;-63
2021/09/29 05:06:20;;;;;;;2.78;0.80;;;10.00;92.70;;;;;;5028664;28;20037;-63
2021/09/29 05:08:49;;;;;;;8.52;0.90;;;10.00;92.60;;;;;;5029224;28;20114;-64
2021/09/29 05:11:24;;;;;;;2.65;0.85;;;10.00;92.60;;;;;;5028982;28;20065;-63
2021/09/29 05:13:51;;;;;;;5.95;1.13;;;9.90;92.70;;;;;;5030147;28;20045;-63
2021/09/29 05:16:17;;;;;;;2.15;0.80;;;9.90;92.60;;;;;;5029918;28;20103;-63
2021/09/29 05:18:44;;;;;;;2.67;0.90;;;9.90;92.70;;;;;;5028061;28;20050;-64
2021/09/29 05:21:11;;;;;;;3.63;0.90;;;9.80;92.60;;;;;;5029419;28;20543;-62
2021/09/29 05:23:40;;;;;;;6.05;0.90;;;9.90;92.60;;;;;;5028342;28;20508;-63
2021/09/29 05:26:06;;;;;;;5.20;0.82;;;9.90;92.60;;;;;;5036091;28;20096;-64
2021/09/29 05:28:37;;;;;;;3.30;0.90;;;9.80;92.40;;;;;;5029443;28;20107;-65
2021/09/29 05:31:05;;;;;;;5.07;2.30;;;9.80;92.60;;;;;;5023402;28;20538;-64
2021/09/29 05:33:32;;;;;;;11.70;3.65;;;9.80;92.50;;;;;;5027955;28;20073;-64
2021/09/29 05:35:59;;;;;;;9.63;7.05;;;9.70;92.40;;;;;;5029663;28;20099;-63
2021/09/29 05:38:26;;;;;;;14.05;9.20;;;9.70;92.80;;;;;;5029261;28;20053;-63
2021/09/29 05:40:52;;;;;;;20.05;11.18;;;9.70;92.60;;;;;;5027973;28;20080;-63
2021/09/29 05:43:19;;;;;;;14.73;10.60;;;9.60;92.50;;;;;;5028940;28;20712;-64
2021/09/29 05:45:46;;;;;;;20.17;9.18;;;9.60;92.70;;;;;;5029444;28;20107;-63
2021/09/29 05:48:13;;;;;;;12.02;7.25;;;9.60;92.50;;;;;;5028341;28;20049;-71
2021/09/29 05:50:40;;;;;;;14.15;5.50;;;9.60;92.50;;;;;;5029073;28;20053;-64
2021/09/29 05:53:07;;;;;;;10.10;4.20;;;9.60;92.50;;;;;;5027437;28;20051;-66
2021/09/29 05:55:34;;;;;;;4.38;2.38;;;9.50;92.50;;;;;;5029032;28;20053;-64
2021/09/29 05:58:01;;;;;;;9.43;2.60;;;9.50;92.70;;;;;;5028004;28;20121;-64
2021/09/29 06:00:28;;;;;;;4.25;2.15;;;9.50;92.80;;;;;;5028808;28;20042;-64
2021/09/29 06:02:54;;;;;;;8.40;2.35;;;9.50;92.80;;;;;;5028822;28;20183;-64
2021/09/29 06:05:22;;;;;;;9.60;2.10;;;9.40;92.70;;;;;;5028573;28;20037;-62
2021/09/29 06:07:49;;;;;;;7.30;1.52;;;9.40;92.80;;;;;;5027022;28;20050;-62
2021/09/29 06:10:16;;;;;;;4.00;1.27;;;9.40;92.60;;;;;;5025810;28;20073;-61
2021/09/29 06:12:42;;;;;;;9.20;1.77;;;9.50;92.60;;;;;;5025398;28;20635;-61
2021/09/29 06:15:17;;;;;;;7.18;1.95;;;9.50;92.50;;;;;;5027793;28;20068;-60
2021/09/29 06:17:52;;;;;;;4.80;0.93;;;9.50;92.60;;;;;;5027254;28;20045;-62
2021/09/29 06:20:19;;;;;;;3.40;0.70;;;9.40;92.50;;;;;;5010938;28;20103;-62
2021/09/29 06:22:46;;;;;;;5.10;1.30;;;9.40;92.40;;;;;;5026648;28;20145;-61
2021/09/29 06:25:13;;;;;;;2.42;0.90;;;9.40;92.50;;;;;;5026823;28;20558;-62
2021/09/29 06:27:40;;;;;;;1.98;0.93;;;9.40;92.50;;;;;;5026926;28;20084;-62
2021/09/29 06:30:07;;;;;;;4.13;0.90;;;9.40;92.40;;;;;;5026049;28;20096;-62
2021/09/29 06:32:34;;;;;;;6.97;1.20;;;9.30;92.40;;;;;;5024040;28;20088;-61
2021/09/29 06:35:01;;;;;;;3.38;1.10;;;9.40;92.40;;;;;;5026444;28;20042;-61
2021/09/29 06:37:27;;;;;;;16.52;1.52;;;9.40;92.40;;;;;;5026271;28;20045;-60
2021/09/29 06:39:54;;;;;;;3.72;0.95;;;9.40;92.40;;;;;;5025882;28;20099;-60
2021/09/29 06:42:21;;;;;;;1.23;0.95;;;9.40;92.30;;;;;;5026242;28;20046;-60
2021/09/29 06:44:48;;;;;;;3.17;1.17;;;9.40;92.20;;;;;;5026899;28;20140;-61
2021/09/29 06:47:14;;;;;;;3.78;1.40;;;9.40;92.20;;;;;;5026062;28;20492;-61
2021/09/29 06:49:41;;;;;;;8.95;1.50;;;9.40;92.20;;;;;;5025538;28;20073;-61
2021/09/29 06:52:08;;;;;;;8.75;1.20;;;9.50;92.30;;;;;;4678647;28;10000475;-60
2021/09/29 06:54:35;;;;;;;9.68;1.45;;;9.50;92.20;;;;;;5019680;28;20141;-61
2021/09/29 06:57:06;;;;;;;5.70;1.42;;;9.50;92.10;;;;;;5023576;28;20560;-62
2021/09/29 06:59:35;;;;;;;6.10;1.55;;;9.50;91.80;;;;;;5029153;28;20085;-62
2021/09/29 07:02:02;;;;;;;5.03;1.02;;;9.50;92.10;;;;;;5020279;28;20215;-60
2021/09/29 07:04:29;;;;;;;3.97;1.50;;;9.50;91.80;;;;;;5023565;28;21365;-61
2021/09/29 07:06:56;;;;;;;8.93;2.97;;;9.60;92.00;;;;;;5023780;28;20064;-61
2021/09/29 07:09:23;;;;;;;5.55;1.20;;;9.60;92.00;;;;;;5023317;28;20125;-61
2021/09/29 07:11:50;;;;;;;4.70;1.15;;;9.60;92.00;;;;;;5021200;28;20053;-61
2021/09/29 07:14:19;;;;;;;8.93;1.02;;;9.60;91.90;;;;;;5023344;28;20053;-63
2021/09/29 07:16:46;;;;;;;5.18;1.20;;;9.60;91.60;;;;;;5022166;28;20080;-63
2021/09/29 07:19:13;;;;;;;3.63;1.25;;;9.70;91.80;;;;;;5023250;28;20045;-62
2021/09/29 07:21:40;;;;;;;8.55;1.55;;;9.60;91.80;;;;;;5023155;28;20077;-62
2021/09/29 07:24:06;;;;;;;2.03;0.93;;;9.70;91.80;;;;;;5023956;28;20076;-62
2021/09/29 07:26:34;;;;;;;2.60;1.02;;;9.70;91.50;;;;;;5021230;28;20056;-62
2021/09/29 07:29:04;;;;;;;3.15;1.55;;;9.70;91.70;;;;;;5023406;28;20050;-61
2021/09/29 07:31:31;;;;;;;5.05;1.02;;;9.70;91.50;;;;;;5023768;28;20128;-61
2021/09/29 07:33:58;;;;;;;2.97;1.15;;;9.70;91.70;;;;;;5022817;28;20938;-61
2021/09/29 07:36:25;;;;;;;5.43;0.85;;;9.70;91.50;;;;;;5025825;28;20617;-62
2021/09/29 07:38:51;;;;;;;2.83;0.70;;;9.70;91.60;;;;;;5025206;28;20124;-62
2021/09/29 07:41:18;;;;;;;4.60;1.45;;;9.80;91.10;;;;;;5021786;28;20045;-62
2021/09/29 07:43:45;;;;;;;2.72;0.85;;;9.80;91.30;;;;;;5022807;28;20124;-59
2021/09/29 07:46:12;;;;;;;6.43;1.10;;;9.90;91.50;;;;;;5021425;28;20469;-61
2021/09/29 07:48:39;;;;;;;7.57;1.17;;;10.00;91.00;;;;;;5022409;28;20049;-60
2021/09/29 07:51:05;;;;;;;7.28;1.27;;;9.90;90.90;;;;;;5021670;28;20099;-61
2021/09/29 07:53:32;;;;;;;7.43;1.13;;;10.00;91.00;;;;;;5024439;28;20087;-61
2021/09/29 07:55:59;;;;;;;7.72;1.05;;;10.00;91.10;;;;;;5019583;28;20096;-60
2021/09/29 07:58:26;;;;;;;9.73;2.33;;;10.10;90.70;;;;;;5025572;28;20107;-60
2021/09/29 08:00:52;;;;;;;11.10;1.83;;;10.10;90.70;;;;;;5025374;28;20444;-60
2021/09/29 08:03:19;;;;;;;4.03;1.50;;;10.20;90.50;;;;;;5025068;28;20064;-62
2021/09/29 08:05:46;;;;;;;2.17;1.15;;;10.10;90.60;;;;;;5025513;28;20056;-61
2021/09/29 08:08:13;;;;;;;6.40;0.85;;;10.20;90.50;;;;;;5024591;28;20440;-60
2021/09/29 08:10:40;;;;;;;10.35;1.50;;;10.30;90.10;;;;;;5023874;28;20053;-61
2021/09/29 08:13:07;;;;;;;3.80;1.00;;;10.30;90.40;;;;;;5021811;28;20076;-62
2021/09/29 08:15:34;;;;;;;2.72;1.10;;;10.40;90.60;;;;;;5021757;28;20104;-61
2021/09/29 08:18:00;;;;;;;3.78;1.10;;;10.40;90.20;;;;;;5022259;28;20072;-62
2021/09/29 08:20:29;;;;;;;7.72;1.20;;;10.50;90.40;;;;;;5022471;28;20053;-61
2021/09/29 08:23:05;;;;;;;8.15;1.30;;;10.50;90.20;;;;;;5022621;28;20048;-62
2021/09/29 08:28:30;;;;;;;11.52;1.10;;;10.60;89.50;;;;;;5025476;28;20445;-61
2021/09/29 08:38:50;;;;;;;3.63;1.38;;;10.80;88.30;;;;;;5025175;28;20057;-61
2021/09/29 08:43:54;;;;;;;2.40;0.80;;;11.00;86.50;;;;;;5023682;28;20053;-61
2021/09/29 08:46:26;;;;;;;13.45;1.50;;;11.00;87.00;;;;;;5024908;28;20041;-62
2021/09/29 09:18:26;;;;;;;3.72;0.88;;;12.60;78.30;;;;;;5019389;28;20065;-61
2021/09/29 09:21:00;;;;;;;6.38;1.00;;;12.60;80.40;;;;;;5025315;28;20103;-60
2021/09/29 09:23:37;;;;;;;4.50;1.02;;;12.50;81.10;;;;;;5018337;28;20124;-61
2021/09/29 09:26:31;;;;;;;10.40;1.00;;;12.30;78.60;;;;;;5026441;28;20050;-61
2021/09/29 09:29:05;;;;;;;2.97;0.80;;;12.40;78.00;;;;;;5022910;28;20081;-61
2021/09/29 09:31:32;;;;;;;6.70;1.20;;;12.30;78.50;;;;;;5028481;28;20463;-60
2021/09/29 09:34:01;;;;;;;4.15;1.15;;;12.20;77.30;;;;;;5028799;28;20049;-60
2021/09/29 09:36:37;;;;;;;4.10;1.05;;;12.10;80.10;;;;;;5028415;28;20065;-61
2021/09/29 09:39:16;;;;;;;6.90;2.63;;;12.00;79.60;;;;;;5028703;28;20085;-61
2021/09/29 09:41:51;;;;;;;5.50;1.17;;;12.10;81.00;;;;;;5027853;28;20067;-60
2021/09/29 09:44:24;;;;;;;3.08;0.73;;;12.20;79.10;;;;;;5028699;28;20130;-62
2021/09/29 09:47:05;;;;;;;4.88;1.00;;;12.10;77.30;;;;;;5027777;28;20412;-59
2021/09/29 09:49:50;;;;;;;7.23;0.80;;;12.10;79.30;;;;;;4677133;28;9999950;-60
2021/09/29 09:52:40;;;;;;;3.97;0.95;;;12.00;77.70;;;;;;5025100;28;20120;-61
2021/09/29 09:55:08;;;;;;;3.83;1.30;;;12.20;78.40;;;;;;5028377;28;20508;-61
2021/09/29 09:57:38;;;;;;;11.98;1.48;;;12.10;77.10;;;;;;5028209;28;20111;-61
2021/09/29 10:00:10;;;;;;;7.93;1.20;;;12.20;78.40;;;;;;5027969;28;20136;-61
2021/09/29 10:02:41;;;;;;;6.80;1.13;;;12.20;78.40;;;;;;5028151;28;20518;-61
2021/09/29 10:05:12;;;;;;;4.50;1.40;;;12.40;76.90;;;;;;5028207;28;20197;-61
2021/09/29 10:07:40;;;;;;;5.30;1.00;;;12.50;75.10;;;;;;5028108;28;20080;-61
2021/09/29 10:10:14;;;;;;;5.15;0.95;;;12.50;74.00;;;;;;5028017;28;20132;-61
2021/09/29 10:26:24;;;;;;;5.18;0.98;;;13.00;71.50;;;;;;5010756;28;20042;-60
2021/09/29 10:29:05;;;;;;;6.13;0.95;;;13.10;71.00;;;;;;5027400;28;20053;-60
2021/09/29 10:34:22;;;;;;;12.07;2.22;;;13.40;73.30;;;;;;5026782;28;20045;-60
2021/09/29 10:37:24;;;;;;;2.67;0.80;;;13.50;72.20;;;;;;5026416;28;20076;-61
2021/09/29 10:42:39;;;;;;;5.45;0.77;;;13.20;69.00;;;;;;5023736;28;20114;-60
2021/09/29 10:48:03;;;;;;;3.60;0.73;;;13.30;68.90;;;;;;5026501;28;20049;-60
2021/09/29 11:02:53;;;;;;;1.90;0.90;;;13.20;71.00;;;;;;5026535;28;20076;-60
2021/09/29 11:33:41;;;;;;;8.27;0.93;;;13.60;63.80;;;;;;5026646;28;20072;-61
2021/09/29 12:09:50;;;;;;;7.55;1.05;;;15.00;63.20;;;;;;5023310;28;20398;-60
2021/09/29 12:12:26;;;;;;;3.03;1.20;;;14.80;59.70;;;;;;5025700;28;20128;-60
2021/09/29 12:15:15;;;;;;;3.38;0.80;;;14.70;60.40;;;;;;5024132;28;20041;-61
2021/09/29 12:17:43;;;;;;;6.70;0.88;;;14.40;61.60;;;;;;5024776;28;20695;-60
2021/09/29 12:20:15;;;;;;;6.72;1.50;;;14.40;61.60;;;;;;5026417;28;20490;-60
2021/09/29 12:22:51;;;;;;;3.80;1.10;;;14.50;63.30;;;;;;5026211;28;20073;-60
2021/09/29 12:25:34;;;;;;;2.53;0.98;;;14.40;59.50;;;;;;5026397;28;20045;-60
2021/09/29 12:33:57;;;;;;;2.92;1.10;;;14.30;61.20;;;;;;5026186;28;20049;-59
2021/09/29 12:36:32;;;;;;;6.60;3.22;;;14.30;61.00;;;;;;5020681;28;20053;-59
2021/09/29 12:38:59;;;;;;;5.32;0.80;;;14.60;62.20;;;;;;5026433;28;20053;-59
2021/09/29 12:41:28;;;;;;;6.63;0.63;;;14.80;61.70;;;;;;5026239;28;20049;-59
2021/09/29 12:44:04;;;;;;;4.47;1.63;;;14.90;58.70;;;;;;5025998;28;20333;-60
2021/09/29 12:46:33;;;;;;;2.38;0.65;;;14.90;57.20;;;;;;5018762;28;20037;-59
2021/09/29 12:49:08;;;;;;;6.55;0.98;;;14.90;57.60;;;;;;5026025;28;20529;-59
2021/09/29 12:51:43;;;;;;;3.67;0.98;;;15.00;60.20;;;;;;5026113;28;20072;-59
2021/09/29 12:54:15;;;;;;;11.25;0.95;;;14.80;56.80;;;;;;5026241;28;20069;-59
2021/09/29 12:56:42;;;;;;;5.25;1.10;;;14.70;57.70;;;;;;5025905;28;20148;-59
2021/09/29 12:59:09;;;;;;;5.93;1.13;;;14.70;59.20;;;;;;5026083;28;20038;-59
2021/09/29 13:01:36;;;;;;;8.13;1.65;;;14.70;58.30;;;;;;5028322;28;20088;-59
2021/09/29 13:04:03;;;;;;;9.20;1.10;;;14.90;59.90;;;;;;5029542;28;20469;-59
2021/09/29 13:06:30;;;;;;;3.25;0.80;;;15.10;59.50;;;;;;5030284;28;20512;-59
2021/09/29 13:08:56;;;;;;;3.60;0.90;;;15.10;59.90;;;;;;5029793;28;20083;-58
2021/09/29 13:11:23;;;;;;;4.38;0.80;;;15.20;57.40;;;;;;5029854;28;20080;-59
2021/09/29 13:13:50;;;;;;;4.55;0.80;;;15.20;56.30;;;;;;5029821;28;20045;-60
2021/09/29 13:16:17;;;;;;;6.05;1.00;;;15.20;58.20;;;;;;5029795;28;20084;-59
2021/09/29 13:21:18;;;;;;;5.22;0.90;;;15.30;56.10;;;;;;5025111;28;20069;-59
2021/09/29 13:23:53;;;;;;;4.82;0.70;;;15.40;57.00;;;;;;5029335;28;20069;-60
2021/09/29 13:37:21;;;;;;;4.70;0.88;;;15.30;56.60;;;;;;5028170;28;20080;-60
2021/09/29 13:39:50;;;;;;;6.93;0.85;;;15.20;58.00;;;;;;5028284;28;20049;-60
2021/09/29 13:42:17;;;;;;;1.10;0.70;;;15.10;53.90;;;;;;5029426;28;20042;-59
2021/09/29 13:44:44;;;;;;;3.78;0.95;;;14.90;55.20;;;;;;5028287;28;20061;-59
2021/09/29 13:47:11;;;;;;;3.33;0.70;;;15.10;57.20;;;;;;5029445;28;20068;-59
2021/09/29 13:49:37;;;;;;;3.05;0.80;;;15.20;54.40;;;;;;5028450;28;20088;-60
2021/09/29 13:52:06;;;;;;;1.33;0.73;;;15.30;55.00;;;;;;5029326;28;20100;-61
2021/09/29 13:54:35;;;;;;;19.52;3.97;;;15.30;54.60;;;;;;5028435;28;20124;-60
2021/09/29 13:57:15;;;;;;;2.05;0.80;;;15.50;53.80;;;;;;5029076;28;20052;-60
2021/09/29 14:02:58;;;;;;;4.05;0.70;;;15.70;51.70;;;;;;5005961;28;20046;-60
2021/09/29 14:30:15;;;;;;;8.30;1.15;;;15.00;56.50;;;;;;5019751;28;20077;-59
2021/09/29 14:33:03;;;;;;;4.25;0.85;;;15.00;57.20;;;;;;5025028;28;20049;-60
2021/09/29 14:35:29;;;;;;;5.97;0.82;;;15.10;56.10;;;;;;5025246;28;20049;-59
2021/09/29 14:37:56;;;;;;;0.93;0.60;;;15.10;57.00;;;;;;5025153;28;20057;-60
2021/09/29 14:40:24;;;;;;;3.20;0.73;;;15.30;54.40;;;;;;5025233;28;20091;-58
2021/09/29 14:42:52;;;;;;;3.53;0.80;;;15.50;55.60;;;;;;5025066;28;20587;-59
2021/09/29 14:45:19;;;;;;;4.28;1.13;;;15.60;53.70;;;;;;5024587;28;20053;-59
2021/09/29 14:47:47;;;;;;;2.60;0.70;;;15.90;53.00;;;;;;5024205;28;20111;-60
2021/09/29 14:50:14;;;;;;;3.15;1.02;;;16.50;54.30;;;;;;5024649;28;20156;-59
2021/09/29 14:52:48;;;;;;;6.18;1.20;;;17.20;53.30;;;;;;5022925;28;20386;-61
2021/09/29 14:55:19;;;;;;;6.82;1.17;;;17.70;50.00;;;;;;5023631;28;20045;-61
2021/09/29 14:57:46;;;;;;;1.05;0.47;;;18.50;52.90;;;;;;5023399;28;20217;-61
2021/09/29 15:00:13;;;;;;;6.90;0.75;;;18.30;45.30;;;;;;5023843;28;20085;-60
2021/09/29 15:02:40;;;;;;;3.22;0.85;;;18.40;47.30;;;;;;5024507;28;20115;-61
2021/09/29 15:05:07;;;;;;;4.20;1.23;;;18.70;46.30;;;;;;5024520;28;20115;-61
2021/09/29 15:07:34;;;;;;;0.95;0.65;;;18.60;47.80;;;;;;5024485;28;20200;-59
2021/09/29 15:10:01;;;;;;;2.47;0.60;;;17.70;45.60;;;;;;5024504;28;20076;-60
2021/09/29 15:12:28;;;;;;;2.78;0.85;;;17.20;49.70;;;;;;5024146;28;20143;-61
2021/09/29 15:15:02;;;;;;;3.53;1.48;;;16.50;48.90;;;;;;5025999;28;20042;-59
2021/09/29 15:17:38;;;;;;;4.78;0.90;;;16.10;51.00;;;;;;5026234;28;20096;-59
2021/09/29 15:23:00;;;;;;;3.85;1.40;;;15.60;52.80;;;;;;5024373;28;20275;-60
2021/09/29 15:47:24;;;;;;;2.50;0.98;;;16.30;64.50;;;;;;5025176;28;20064;-67
2021/09/29 16:11:20;;;;;;;4.25;0.77;;;18.30;60.40;;;;;;5022829;28;20127;-60
2021/09/29 16:29:55;;;;;;;7.93;1.42;;;16.80;56.30;;;;;;5021931;28;20054;-61
2021/09/29 16:34:46;;;;;;;3.97;1.02;;;15.20;62.00;;;;;;5022126;28;20129;-60
2021/09/29 16:37:13;;;;;;;5.35;2.35;;;15.10;62.60;;;;;;5024488;28;20049;-61
2021/09/29 16:39:41;;;;;;;7.28;1.63;;;14.90;63.40;;;;;;5021989;28;20045;-59
2021/09/29 16:42:07;;;;;;;4.85;1.10;;;14.90;63.60;;;;;;5024212;28;20049;-60
2021/09/29 16:44:34;;;;;;;3.80;1.02;;;14.80;63.60;;;;;;5025811;28;20133;-60
2021/09/29 16:47:01;;;;;;;6.05;1.30;;;14.70;63.60;;;;;;5024510;28;20061;-60
2021/09/29 16:49:28;;;;;;;6.53;1.30;;;14.60;63.50;;;;;;5027644;28;20051;-60
2021/09/29 16:52:03;;;;;;;9.15;1.60;;;14.50;61.90;;;;;;5024877;28;20119;-61
2021/09/29 16:54:31;;;;;;;6.18;1.60;;;14.40;61.70;;;;;;5025343;28;20076;-60
2021/09/29 16:56:58;;;;;;;3.80;1.23;;;14.40;60.80;;;;;;5026585;28;20388;-60
2021/09/29 16:59:43;;;;;;;5.53;1.45;;;14.40;61.70;;;;;;5027401;28;20041;-59
2021/09/29 17:02:13;;;;;;;6.55;1.50;;;14.40;62.40;;;;;;5026472;28;20088;-61
2021/09/29 17:04:40;;;;;;;4.00;1.45;;;14.20;60.30;;;;;;5025815;28;20084;-60
2021/09/29 17:07:07;;;;;;;5.25;1.40;;;14.20;61.60;;;;;;5027076;28;20053;-59